KOPL/OPL METAR and TAF weather

Enter ICAO airport designator
Station Type Date Time Source
KOPL METAR 2020/04/04 10:55 UTC NOAA

KOPL 041055Z AUTO 07004KT 10SM BKN110 17/16 A2996 RMK AO2 T01700156


Station Type Date Time Source
KOPL Decoded METAR 2020/04/04 10:55 UTC NOAA

Station name not available
Apr 04, 2020 - 06:55 AM EDT / 2020.04.04 1055 UTC
Wind: from the ENE (070 degrees) at 5 MPH (4 KT):0
Visibility: 10 mile(s):0
Sky conditions: mostly cloudy
Temperature: 62.6 F (17.0 C)
Dew Point: 60.1 F (15.6 C)
Relative Humidity: 91%
Pressure (altimeter): 29.96 in. Hg (1014 hPa)
ob: KOPL 041055Z AUTO 07004KT 10SM BKN110 17/16 A2996 RMK AO2 T01700156
cycle: 11

Station Type Date Time Source
KOPL TAF UTC NOAA

Error!

Example: see airport list